Wildwood, Canada
Current Conditions -  °F | °C
As of 10:00 PM on Tuesday 27 Jan 2015 (Local Time) from CYZU Reporting Station
Moderate Fog Moderate Fog  
Wind Chill: 27°   Ceiling: 200
Heat Index: 32°   Visibility: 0.25mi
Dew Point: 32°   Wind: 5mph
Humidity: 100%   Direction: 270°W
Pressure: 29.88"   Gusts: NA
Location:  53.62°N, 115.25°W
Report Text: CYZU 280500Z 27004KT 230V290 1/4SM FG VV002 00/M00 A2988 RMK FG8 LAST OBS/NEXT 281300Z SLP151
Loading
Personal Weather Stations






























Interactive Weather Map New forecast layout! Learn more

10-Day Weather Forecast

Advertisements
Track Severe Weather on mobile